WZZ9TU LHBP-EHEH
Flight info
| Callsign | WZZ9TU |
|---|---|
| Flight time | N/A |
| Altitude | 36000 |
| Route | GILEP DCT ZOLKU DCT BEGLA DCT DITIS DCT RAPET DCT RUNEN DCT MAPOX DCT BIGGE DCT DOMEG DCT ROTEK |
| Aircraft | A321/M-SDE3FGHIRWY/LB1 |
Departure
| Time | 2026-05-04 08:54 |
|---|---|
| Airport | Budapest Liszt Ferenc International Airport (LHBP) |
Arrival
| Time | N/A |
|---|---|
| Airport | Eindhoven Airport (EHEH) |
| Time | Latitude | Longitude | Altitude | Speed | Heading |
|---|---|---|---|---|---|
| 2026-05-04 08:42 | 47.43537 | 19.26434 | 457 ft | 0 kts | 222° |
| 2026-05-04 08:46 | 47.43541 | 19.26439 | 457 ft | 4 kts | 222° |
| 2026-05-04 08:46 | 47.43558 | 19.26463 | 455 ft | 4 kts | 225° |
| 2026-05-04 08:46 | 47.43570 | 19.26492 | 458 ft | 4 kts | 282° |
| 2026-05-04 08:47 | 47.43558 | 19.26523 | 456 ft | 2 kts | 312° |
| 2026-05-04 08:47 | 47.43554 | 19.26530 | 455 ft | 0 kts | 313° |
| 2026-05-04 08:50 | 47.43755 | 19.26415 | 458 ft | 10 kts | 22° |
| 2026-05-04 08:50 | 47.43818 | 19.26367 | 458 ft | 13 kts | 314° |
| 2026-05-04 08:51 | 47.43893 | 19.26248 | 458 ft | 17 kts | 312° |
| 2026-05-04 08:51 | 47.43974 | 19.26117 | 458 ft | 18 kts | 313° |
| 2026-05-04 08:51 | 47.44062 | 19.25977 | 458 ft | 19 kts | 312° |
| 2026-05-04 08:51 | 47.44153 | 19.25826 | 458 ft | 20 kts | 312° |
| 2026-05-04 08:52 | 47.44251 | 19.25669 | 458 ft | 21 kts | 313° |
| 2026-05-04 08:52 | 47.44374 | 19.25555 | 459 ft | 22 kts | 355° |
| 2026-05-04 08:52 | 47.44496 | 19.25662 | 470 ft | 19 kts | 67° |
| 2026-05-04 08:52 | 47.44505 | 19.25817 | 476 ft | 15 kts | 109° |
| 2026-05-04 08:53 | 47.44476 | 19.25868 | 474 ft | 1 kts | 133° |
| 2026-05-04 08:54 | 47.40426 | 19.34097 | 2891 ft | 208 kts | 124° |
| 2026-05-04 08:55 | 47.39689 | 19.36047 | 3367 ft | 222 kts | 124° |
| 2026-05-04 08:55 | 47.38929 | 19.38064 | 4122 ft | 227 kts | 123° |
| 2026-05-04 08:55 | 47.38019 | 19.39920 | 4874 ft | 226 kts | 147° |
| 2026-05-04 08:55 | 47.36571 | 19.40643 | 5542 ft | 224 kts | 185° |
| 2026-05-04 08:57 | 47.29396 | 19.25440 | 9896 ft | 290 kts | 237° |
| 2026-05-04 09:01 | 47.29297 | 18.82416 | 17998 ft | 380 kts | 309° |
| 2026-05-04 09:01 | 47.30930 | 18.79340 | 18627 ft | 382 kts | 308° |
| 2026-05-04 09:01 | 47.32570 | 18.76240 | 19179 ft | 385 kts | 308° |
| 2026-05-04 09:01 | 47.34195 | 18.73159 | 19715 ft | 387 kts | 309° |
| 2026-05-04 09:02 | 47.35854 | 18.70012 | 20280 ft | 390 kts | 309° |
| 2026-05-04 09:02 | 47.37522 | 18.66854 | 20843 ft | 392 kts | 309° |
| 2026-05-04 09:02 | 47.39202 | 18.63669 | 21403 ft | 394 kts | 309° |
| 2026-05-04 09:02 | 47.40815 | 18.60381 | 21956 ft | 398 kts | 302° |
| 2026-05-04 09:03 | 47.42044 | 18.56716 | 22522 ft | 400 kts | 291° |
| 2026-05-04 09:03 | 47.42886 | 18.52785 | 23064 ft | 403 kts | 287° |
| 2026-05-04 09:03 | 47.43684 | 18.48804 | 23588 ft | 405 kts | 287° |
| 2026-05-04 09:03 | 47.44494 | 18.44803 | 24030 ft | 408 kts | 288° |
| 2026-05-04 09:04 | 47.45312 | 18.40782 | 24454 ft | 410 kts | 288° |
| 2026-05-04 09:04 | 47.46122 | 18.36802 | 24892 ft | 411 kts | 288° |
| 2026-05-04 09:04 | 47.46946 | 18.32750 | 25330 ft | 412 kts | 288° |
| 2026-05-04 09:04 | 47.47774 | 18.28683 | 25729 ft | 415 kts | 288° |
| 2026-05-04 09:05 | 47.48597 | 18.24585 | 26161 ft | 417 kts | 287° |
| 2026-05-04 09:05 | 47.49342 | 18.20503 | 26538 ft | 419 kts | 285° |
| 2026-05-04 09:05 | 47.50038 | 18.16307 | 26936 ft | 421 kts | 285° |
| 2026-05-04 09:05 | 47.50700 | 18.12083 | 27338 ft | 423 kts | 284° |
| 2026-05-04 09:06 | 47.51357 | 18.07837 | 27757 ft | 424 kts | 285° |
| 2026-05-04 09:07 | 47.55154 | 17.84372 | 29659 ft | 436 kts | 288° |
| 2026-05-04 09:08 | 47.55238 | 17.83915 | 29705 ft | 435 kts | 287° |
| 2026-05-04 09:08 | 47.56225 | 17.79754 | 30066 ft | 434 kts | 296° |
| 2026-05-04 09:08 | 47.57678 | 17.75845 | 30428 ft | 434 kts | 302° |
| 2026-05-04 09:08 | 47.59243 | 17.72019 | 30746 ft | 435 kts | 301° |
| 2026-05-04 09:09 | 47.60802 | 17.68146 | 30982 ft | 439 kts | 301° |
| 2026-05-04 09:09 | 47.62354 | 17.64243 | 31254 ft | 441 kts | 301° |
| 2026-05-04 09:09 | 47.63906 | 17.60317 | 31631 ft | 440 kts | 301° |
| 2026-05-04 09:09 | 47.65447 | 17.56407 | 32069 ft | 438 kts | 301° |
| 2026-05-04 09:10 | 47.66982 | 17.52509 | 32492 ft | 437 kts | 301° |
| 2026-05-04 09:10 | 47.68493 | 17.48677 | 32885 ft | 436 kts | 301° |
| 2026-05-04 09:10 | 47.70021 | 17.44802 | 33306 ft | 434 kts | 300° |
| 2026-05-04 09:10 | 47.71543 | 17.40937 | 33754 ft | 432 kts | 300° |
| 2026-05-04 09:11 | 47.73055 | 17.37093 | 34159 ft | 430 kts | 300° |
| 2026-05-04 09:11 | 47.74569 | 17.33239 | 34522 ft | 428 kts | 300° |
| 2026-05-04 09:11 | 47.76058 | 17.29446 | 34830 ft | 428 kts | 300° |
| 2026-05-04 09:11 | 47.77558 | 17.25618 | 35119 ft | 428 kts | 300° |
| 2026-05-04 09:12 | 47.79050 | 17.21799 | 35482 ft | 426 kts | 300° |
| 2026-05-04 09:12 | 47.80533 | 17.17991 | 35816 ft | 425 kts | 300° |
| 2026-05-04 09:14 | 47.92901 | 16.93692 | 36082 ft | 420 kts | 308° |
| 2026-05-04 09:14 | 47.96616 | 16.86950 | 36070 ft | 420 kts | 308° |
| 2026-05-04 09:15 | 48.00256 | 16.80315 | 36064 ft | 421 kts | 308° |
| 2026-05-04 09:15 | 48.03984 | 16.73484 | 36064 ft | 421 kts | 308° |